sensor_id;sensor_type;location;lat;lon;timestamp;P1;durP1;ratioP1;P2;durP2;ratioP2
11522;SDS011;40093;43.224;27.910;2022-09-21T00:01:25;6.80;;;3.93;;
11522;SDS011;40093;43.224;27.910;2022-09-21T00:03:54;5.97;;;3.97;;
11522;SDS011;40093;43.224;27.910;2022-09-21T00:06:22;7.73;;;4.00;;
11522;SDS011;40093;43.224;27.910;2022-09-21T00:08:52;7.30;;;4.10;;
11522;SDS011;40093;43.224;27.910;2022-09-21T00:11:19;5.90;;;3.73;;
11522;SDS011;40093;43.224;27.910;2022-09-21T00:13:50;7.00;;;3.80;;
11522;SDS011;40093;43.224;27.910;2022-09-21T00:16:18;7.20;;;3.73;;
11522;SDS011;40093;43.224;27.910;2022-09-21T00:18:45;5.67;;;3.73;;
11522;SDS011;40093;43.224;27.910;2022-09-21T00:21:13;4.60;;;3.30;;
11522;SDS011;40093;43.224;27.910;2022-09-21T00:23:40;4.03;;;3.17;;
11522;SDS011;40093;43.224;27.910;2022-09-21T00:26:10;3.20;;;2.70;;
11522;SDS011;40093;43.224;27.910;2022-09-21T00:28:38;5.07;;;3.03;;
11522;SDS011;40093;43.224;27.910;2022-09-21T00:31:06;3.90;;;3.40;;
11522;SDS011;40093;43.224;27.910;2022-09-21T00:33:36;4.20;;;3.30;;
11522;SDS011;40093;43.224;27.910;2022-09-21T00:36:03;4.27;;;3.63;;
11522;SDS011;40093;43.224;27.910;2022-09-21T00:38:32;5.17;;;3.50;;
11522;SDS011;40093;43.224;27.910;2022-09-21T00:41:00;5.47;;;3.30;;
11522;SDS011;40093;43.224;27.910;2022-09-21T00:43:28;5.33;;;3.33;;
11522;SDS011;40093;43.224;27.910;2022-09-21T00:45:59;4.03;;;3.50;;
11522;SDS011;40093;43.224;27.910;2022-09-21T00:48:30;10.00;;;3.73;;
11522;SDS011;40093;43.224;27.910;2022-09-21T00:51:00;6.23;;;4.10;;
11522;SDS011;40093;43.224;27.910;2022-09-21T00:53:30;7.40;;;4.70;;
11522;SDS011;40093;43.224;27.910;2022-09-21T00:55:58;6.67;;;5.30;;
11522;SDS011;40093;43.224;27.910;2022-09-21T00:58:29;5.43;;;4.50;;
11522;SDS011;40093;43.224;27.910;2022-09-21T01:00:59;8.60;;;4.70;;
11522;SDS011;40093;43.224;27.910;2022-09-21T01:03:26;7.87;;;5.00;;
11522;SDS011;40093;43.224;27.910;2022-09-21T01:05:55;9.70;;;4.90;;
11522;SDS011;40093;43.224;27.910;2022-09-21T01:08:23;6.37;;;4.60;;
11522;SDS011;40093;43.224;27.910;2022-09-21T01:10:56;8.50;;;5.10;;
11522;SDS011;40093;43.224;27.910;2022-09-21T01:13:36;6.00;;;3.80;;
11522;SDS011;40093;43.224;27.910;2022-09-21T01:16:13;5.43;;;4.00;;
11522;SDS011;40093;43.224;27.910;2022-09-21T01:18:45;8.23;;;3.80;;
11522;SDS011;40093;43.224;27.910;2022-09-21T01:21:19;7.20;;;3.97;;
11522;SDS011;40093;43.224;27.910;2022-09-21T01:29:51;8.87;;;4.20;;
11522;SDS011;40093;43.224;27.910;2022-09-21T01:32:27;4.63;;;4.13;;
11522;SDS011;40093;43.224;27.910;2022-09-21T01:34:59;6.57;;;4.20;;
11522;SDS011;40093;43.224;27.910;2022-09-21T01:37:32;5.90;;;3.73;;
11522;SDS011;40093;43.224;27.910;2022-09-21T01:40:06;4.67;;;3.10;;
11522;SDS011;40093;43.224;27.910;2022-09-21T01:42:37;3.40;;;2.97;;
11522;SDS011;40093;43.224;27.910;2022-09-21T01:45:08;5.73;;;2.90;;
11522;SDS011;40093;43.224;27.910;2022-09-21T01:47:41;5.30;;;3.00;;
11522;SDS011;40093;43.224;27.910;2022-09-21T01:50:09;4.17;;;3.00;;
11522;SDS011;40093;43.224;27.910;2022-09-21T01:52:40;3.17;;;2.50;;
11522;SDS011;40093;43.224;27.910;2022-09-21T01:55:11;4.57;;;3.17;;
11522;SDS011;40093;43.224;27.910;2022-09-21T01:57:42;2.60;;;2.40;;
11522;SDS011;40093;43.224;27.910;2022-09-21T02:00:15;2.80;;;2.60;;
11522;SDS011;40093;43.224;27.910;2022-09-21T02:02:43;4.43;;;2.87;;
11522;SDS011;40093;43.224;27.910;2022-09-21T02:05:15;5.23;;;3.40;;
11522;SDS011;40093;43.224;27.910;2022-09-21T02:07:45;6.60;;;3.73;;
11522;SDS011;40093;43.224;27.910;2022-09-21T02:10:14;6.80;;;4.30;;
11522;SDS011;40093;43.224;27.910;2022-09-21T02:12:46;6.90;;;4.37;;
11522;SDS011;40093;43.224;27.910;2022-09-21T02:15:17;6.50;;;4.30;;
11522;SDS011;40093;43.224;27.910;2022-09-21T02:17:51;6.13;;;5.10;;
11522;SDS011;40093;43.224;27.910;2022-09-21T02:20:29;6.63;;;4.90;;
11522;SDS011;40093;43.224;27.910;2022-09-21T02:23:01;8.57;;;5.27;;
11522;SDS011;40093;43.224;27.910;2022-09-21T02:25:38;11.60;;;5.77;;
11522;SDS011;40093;43.224;27.910;2022-09-21T02:28:11;10.50;;;5.20;;
11522;SDS011;40093;43.224;27.910;2022-09-21T02:30:51;7.83;;;5.30;;
11522;SDS011;40093;43.224;27.910;2022-09-21T02:33:22;5.60;;;4.80;;
11522;SDS011;40093;43.224;27.910;2022-09-21T02:35:57;10.10;;;4.87;;
11522;SDS011;40093;43.224;27.910;2022-09-21T02:38:33;5.13;;;4.63;;
11522;SDS011;40093;43.224;27.910;2022-09-21T02:41:06;7.40;;;4.60;;
11522;SDS011;40093;43.224;27.910;2022-09-21T02:43:38;9.50;;;4.20;;
11522;SDS011;40093;43.224;27.910;2022-09-21T02:46:13;5.87;;;4.60;;
11522;SDS011;40093;43.224;27.910;2022-09-21T02:48:45;7.20;;;4.50;;
11522;SDS011;40093;43.224;27.910;2022-09-21T02:51:14;8.10;;;5.10;;
11522;SDS011;40093;43.224;27.910;2022-09-21T02:53:45;8.03;;;4.93;;
11522;SDS011;40093;43.224;27.910;2022-09-21T02:56:15;11.47;;;5.03;;
11522;SDS011;40093;43.224;27.910;2022-09-21T02:58:44;6.30;;;4.93;;
11522;SDS011;40093;43.224;27.910;2022-09-21T03:01:17;9.07;;;5.47;;
11522;SDS011;40093;43.224;27.910;2022-09-21T03:03:45;8.97;;;5.60;;
11522;SDS011;40093;43.224;27.910;2022-09-21T03:06:12;9.57;;;6.63;;
11522;SDS011;40093;43.224;27.910;2022-09-21T03:08:39;8.67;;;6.10;;
11522;SDS011;40093;43.224;27.910;2022-09-21T03:11:06;9.30;;;5.80;;
11522;SDS011;40093;43.224;27.910;2022-09-21T03:13:34;7.83;;;5.70;;
11522;SDS011;40093;43.224;27.910;2022-09-21T03:16:02;8.37;;;5.13;;
11522;SDS011;40093;43.224;27.910;2022-09-21T03:18:32;11.10;;;5.70;;
11522;SDS011;40093;43.224;27.910;2022-09-21T03:21:00;10.40;;;6.00;;
11522;SDS011;40093;43.224;27.910;2022-09-21T03:23:27;9.00;;;5.07;;
11522;SDS011;40093;43.224;27.910;2022-09-21T03:25:54;11.73;;;5.97;;
11522;SDS011;40093;43.224;27.910;2022-09-21T03:28:21;11.17;;;6.20;;
11522;SDS011;40093;43.224;27.910;2022-09-21T03:30:49;8.63;;;5.57;;
11522;SDS011;40093;43.224;27.910;2022-09-21T03:33:17;12.90;;;5.10;;
11522;SDS011;40093;43.224;27.910;2022-09-21T03:35:51;9.20;;;5.43;;
11522;SDS011;40093;43.224;27.910;2022-09-21T03:38:21;7.70;;;5.40;;
11522;SDS011;40093;43.224;27.910;2022-09-21T03:40:49;7.90;;;5.53;;
11522;SDS011;40093;43.224;27.910;2022-09-21T03:43:16;9.20;;;6.10;;
11522;SDS011;40093;43.224;27.910;2022-09-21T03:45:43;9.03;;;5.40;;
11522;SDS011;40093;43.224;27.910;2022-09-21T03:48:11;10.03;;;5.90;;
11522;SDS011;40093;43.224;27.910;2022-09-21T03:50:39;9.23;;;5.57;;
11522;SDS011;40093;43.224;27.910;2022-09-21T03:53:08;7.10;;;5.40;;
11522;SDS011;40093;43.224;27.910;2022-09-21T03:55:36;36.80;;;27.33;;
11522;SDS011;40093;43.224;27.910;2022-09-21T03:58:03;25.43;;;17.03;;
11522;SDS011;40093;43.224;27.910;2022-09-21T04:00:30;11.97;;;6.37;;
11522;SDS011;40093;43.224;27.910;2022-09-21T04:02:57;9.70;;;5.43;;
11522;SDS011;40093;43.224;27.910;2022-09-21T04:05:24;10.33;;;6.37;;
11522;SDS011;40093;43.224;27.910;2022-09-21T04:07:52;11.73;;;5.60;;
11522;SDS011;40093;43.224;27.910;2022-09-21T04:10:22;7.70;;;5.70;;
11522;SDS011;40093;43.224;27.910;2022-09-21T04:12:57;9.60;;;6.03;;
11522;SDS011;40093;43.224;27.910;2022-09-21T04:15:26;35.33;;;25.40;;
11522;SDS011;40093;43.224;27.910;2022-09-21T04:17:53;25.93;;;18.10;;
11522;SDS011;40093;43.224;27.910;2022-09-21T04:20:21;14.67;;;9.87;;
11522;SDS011;40093;43.224;27.910;2022-09-21T04:22:48;15.00;;;9.80;;
11522;SDS011;40093;43.224;27.910;2022-09-21T04:25:15;23.63;;;14.83;;
11522;SDS011;40093;43.224;27.910;2022-09-21T04:27:44;11.73;;;6.17;;
11522;SDS011;40093;43.224;27.910;2022-09-21T04:30:12;21.00;;;6.80;;
11522;SDS011;40093;43.224;27.910;2022-09-21T04:32:40;17.77;;;6.70;;
11522;SDS011;40093;43.224;27.910;2022-09-21T04:35:07;15.07;;;5.33;;
11522;SDS011;40093;43.224;27.910;2022-09-21T04:37:34;12.27;;;5.60;;
11522;SDS011;40093;43.224;27.910;2022-09-21T04:40:02;10.67;;;5.80;;
11522;SDS011;40093;43.224;27.910;2022-09-21T04:42:29;14.97;;;6.30;;
11522;SDS011;40093;43.224;27.910;2022-09-21T04:44:57;10.93;;;5.80;;
11522;SDS011;40093;43.224;27.910;2022-09-21T04:47:24;13.87;;;6.37;;
11522;SDS011;40093;43.224;27.910;2022-09-21T04:49:51;11.90;;;5.73;;
11522;SDS011;40093;43.224;27.910;2022-09-21T04:52:18;10.40;;;5.60;;
11522;SDS011;40093;43.224;27.910;2022-09-21T04:54:45;11.83;;;6.30;;
11522;SDS011;40093;43.224;27.910;2022-09-21T04:57:12;9.73;;;5.80;;
11522;SDS011;40093;43.224;27.910;2022-09-21T04:59:40;12.77;;;5.90;;
11522;SDS011;40093;43.224;27.910;2022-09-21T05:02:08;17.00;;;6.40;;
11522;SDS011;40093;43.224;27.910;2022-09-21T05:04:35;11.60;;;5.63;;
11522;SDS011;40093;43.224;27.910;2022-09-21T05:07:02;13.73;;;5.60;;
11522;SDS011;40093;43.224;27.910;2022-09-21T05:09:29;12.90;;;6.90;;
11522;SDS011;40093;43.224;27.910;2022-09-21T05:12:13;8.57;;;5.40;;
11522;SDS011;40093;43.224;27.910;2022-09-21T05:14:40;7.93;;;5.27;;
11522;SDS011;40093;43.224;27.910;2022-09-21T05:17:10;7.23;;;4.80;;
11522;SDS011;40093;43.224;27.910;2022-09-21T05:19:38;11.10;;;5.80;;
11522;SDS011;40093;43.224;27.910;2022-09-21T05:22:04;15.23;;;6.20;;
11522;SDS011;40093;43.224;27.910;2022-09-21T05:24:31;9.00;;;5.17;;
11522;SDS011;40093;43.224;27.910;2022-09-21T05:26:58;6.83;;;5.33;;
11522;SDS011;40093;43.224;27.910;2022-09-21T05:29:25;8.23;;;4.80;;
11522;SDS011;40093;43.224;27.910;2022-09-21T05:31:53;6.23;;;4.57;;
11522;SDS011;40093;43.224;27.910;2022-09-21T05:34:27;11.37;;;4.37;;
11522;SDS011;40093;43.224;27.910;2022-09-21T05:37:13;8.33;;;5.40;;
11522;SDS011;40093;43.224;27.910;2022-09-21T05:39:55;6.83;;;3.77;;
11522;SDS011;40093;43.224;27.910;2022-09-21T05:42:22;7.47;;;4.00;;
11522;SDS011;40093;43.224;27.910;2022-09-21T05:44:49;8.90;;;4.40;;
11522;SDS011;40093;43.224;27.910;2022-09-21T05:47:20;9.23;;;4.67;;
11522;SDS011;40093;43.224;27.910;2022-09-21T05:49:56;7.10;;;4.43;;
11522;SDS011;40093;43.224;27.910;2022-09-21T05:52:32;5.20;;;4.00;;
11522;SDS011;40093;43.224;27.910;2022-09-21T05:55:06;6.80;;;4.07;;
11522;SDS011;40093;43.224;27.910;2022-09-21T05:57:45;5.50;;;3.70;;
11522;SDS011;40093;43.224;27.910;2022-09-21T06:00:18;7.87;;;3.60;;
11522;SDS011;40093;43.224;27.910;2022-09-21T06:02:54;7.93;;;3.60;;
11522;SDS011;40093;43.224;27.910;2022-09-21T06:05:39;7.20;;;3.77;;
11522;SDS011;40093;43.224;27.910;2022-09-21T06:08:08;4.87;;;3.40;;
11522;SDS011;40093;43.224;27.910;2022-09-21T06:10:35;10.47;;;3.90;;
11522;SDS011;40093;43.224;27.910;2022-09-21T06:13:02;8.10;;;3.50;;
11522;SDS011;40093;43.224;27.910;2022-09-21T06:15:29;6.47;;;3.53;;
11522;SDS011;40093;43.224;27.910;2022-09-21T06:17:56;6.90;;;4.20;;
11522;SDS011;40093;43.224;27.910;2022-09-21T06:20:23;10.30;;;3.40;;
11522;SDS011;40093;43.224;27.910;2022-09-21T06:22:51;5.53;;;3.70;;
11522;SDS011;40093;43.224;27.910;2022-09-21T06:25:18;7.47;;;3.70;;
11522;SDS011;40093;43.224;27.910;2022-09-21T06:27:46;10.43;;;3.67;;
11522;SDS011;40093;43.224;27.910;2022-09-21T06:30:13;6.03;;;3.57;;
11522;SDS011;40093;43.224;27.910;2022-09-21T06:32:40;5.47;;;3.40;;
11522;SDS011;40093;43.224;27.910;2022-09-21T06:35:07;12.23;;;3.93;;
11522;SDS011;40093;43.224;27.910;2022-09-21T06:37:34;4.20;;;2.80;;
11522;SDS011;40093;43.224;27.910;2022-09-21T06:40:04;4.40;;;2.57;;
11522;SDS011;40093;43.224;27.910;2022-09-21T06:42:32;9.73;;;3.17;;
11522;SDS011;40093;43.224;27.910;2022-09-21T06:44:58;5.97;;;2.43;;
11522;SDS011;40093;43.224;27.910;2022-09-21T06:47:25;3.43;;;2.53;;
11522;SDS011;40093;43.224;27.910;2022-09-21T06:49:52;5.60;;;2.60;;
11522;SDS011;40093;43.224;27.910;2022-09-21T06:52:19;9.80;;;2.70;;
11522;SDS011;40093;43.224;27.910;2022-09-21T06:54:46;9.20;;;2.90;;
11522;SDS011;40093;43.224;27.910;2022-09-21T06:57:14;9.27;;;2.77;;
11522;SDS011;40093;43.224;27.910;2022-09-21T06:59:41;12.40;;;2.57;;
11522;SDS011;40093;43.224;27.910;2022-09-21T07:02:09;6.33;;;2.03;;
11522;SDS011;40093;43.224;27.910;2022-09-21T07:07:58;5.07;;;2.13;;
11522;SDS011;40093;43.224;27.910;2022-09-21T07:10:25;6.10;;;2.20;;
11522;SDS011;40093;43.224;27.910;2022-09-21T07:12:54;3.33;;;2.20;;
11522;SDS011;40093;43.224;27.910;2022-09-21T07:15:21;4.27;;;2.53;;
11522;SDS011;40093;43.224;27.910;2022-09-21T07:17:48;4.23;;;2.40;;
11522;SDS011;40093;43.224;27.910;2022-09-21T07:20:14;4.50;;;2.10;;
11522;SDS011;40093;43.224;27.910;2022-09-21T07:22:41;5.37;;;1.87;;
11522;SDS011;40093;43.224;27.910;2022-09-21T07:25:08;6.60;;;2.00;;
11522;SDS011;40093;43.224;27.910;2022-09-21T07:27:35;3.80;;;1.80;;
11522;SDS011;40093;43.224;27.910;2022-09-21T07:30:04;4.73;;;1.80;;
11522;SDS011;40093;43.224;27.910;2022-09-21T07:32:32;4.47;;;2.03;;
11522;SDS011;40093;43.224;27.910;2022-09-21T07:34:59;4.67;;;2.00;;
11522;SDS011;40093;43.224;27.910;2022-09-21T07:37:26;4.90;;;2.03;;
11522;SDS011;40093;43.224;27.910;2022-09-21T07:39:54;3.93;;;2.00;;
11522;SDS011;40093;43.224;27.910;2022-09-21T07:42:20;4.93;;;1.73;;
11522;SDS011;40093;43.224;27.910;2022-09-21T07:44:50;3.53;;;1.90;;
11522;SDS011;40093;43.224;27.910;2022-09-21T07:47:19;3.27;;;1.70;;
11522;SDS011;40093;43.224;27.910;2022-09-21T07:49:46;5.73;;;1.80;;
11522;SDS011;40093;43.224;27.910;2022-09-21T07:52:13;3.63;;;1.50;;
11522;SDS011;40093;43.224;27.910;2022-09-21T07:54:40;3.00;;;1.40;;
11522;SDS011;40093;43.224;27.910;2022-09-21T07:57:07;2.90;;;1.50;;
11522;SDS011;40093;43.224;27.910;2022-09-21T07:59:51;2.97;;;1.90;;
11522;SDS011;40093;43.224;27.910;2022-09-21T08:02:20;1.70;;;1.50;;
11522;SDS011;40093;43.224;27.910;2022-09-21T08:04:47;4.93;;;1.60;;
11522;SDS011;40093;43.224;27.910;2022-09-21T08:07:14;3.33;;;1.83;;
11522;SDS011;40093;43.224;27.910;2022-09-21T08:09:41;5.97;;;1.70;;
11522;SDS011;40093;43.224;27.910;2022-09-21T08:12:08;4.07;;;1.80;;
11522;SDS011;40093;43.224;27.910;2022-09-21T08:14:35;3.10;;;1.60;;
11522;SDS011;40093;43.224;27.910;2022-09-21T08:17:03;2.53;;;1.80;;
11522;SDS011;40093;43.224;27.910;2022-09-21T08:19:31;2.60;;;1.80;;
11522;SDS011;40093;43.224;27.910;2022-09-21T08:21:58;3.47;;;1.80;;
11522;SDS011;40093;43.224;27.910;2022-09-21T08:24:25;3.40;;;1.80;;
11522;SDS011;40093;43.224;27.910;2022-09-21T08:26:52;2.93;;;1.60;;
11522;SDS011;40093;43.224;27.910;2022-09-21T08:29:19;3.83;;;1.87;;
11522;SDS011;40093;43.224;27.910;2022-09-21T08:31:46;2.83;;;1.87;;
11522;SDS011;40093;43.224;27.910;2022-09-21T08:34:13;2.03;;;1.70;;
11522;SDS011;40093;43.224;27.910;2022-09-21T08:36:42;1.80;;;1.70;;
11522;SDS011;40093;43.224;27.910;2022-09-21T08:39:08;2.50;;;1.70;;
11522;SDS011;40093;43.224;27.910;2022-09-21T08:41:46;4.00;;;1.67;;
11522;SDS011;40093;43.224;27.910;2022-09-21T08:44:27;1.70;;;1.60;;
11522;SDS011;40093;43.224;27.910;2022-09-21T08:47:00;4.37;;;1.60;;
11522;SDS011;40093;43.224;27.910;2022-09-21T08:49:30;2.00;;;1.60;;
11522;SDS011;40093;43.224;27.910;2022-09-21T08:52:04;4.27;;;1.97;;
11522;SDS011;40093;43.224;27.910;2022-09-21T08:54:33;3.33;;;1.80;;
11522;SDS011;40093;43.224;27.910;2022-09-21T08:57:10;8.90;;;2.00;;
11522;SDS011;40093;43.224;27.910;2022-09-21T08:59:38;6.57;;;1.70;;
11522;SDS011;40093;43.224;27.910;2022-09-21T09:02:11;4.77;;;1.70;;
11522;SDS011;40093;43.224;27.910;2022-09-21T09:04:52;3.37;;;1.80;;
11522;SDS011;40093;43.224;27.910;2022-09-21T09:07:40;2.13;;;1.70;;
11522;SDS011;40093;43.224;27.910;2022-09-21T09:10:31;1.87;;;1.47;;
11522;SDS011;40093;43.224;27.910;2022-09-21T09:13:05;2.27;;;1.50;;
11522;SDS011;40093;43.224;27.910;2022-09-21T09:15:48;3.47;;;1.70;;
11522;SDS011;40093;43.224;27.910;2022-09-21T09:18:25;2.87;;;1.40;;
11522;SDS011;40093;43.224;27.910;2022-09-21T09:21:00;2.63;;;1.40;;
11522;SDS011;40093;43.224;27.910;2022-09-21T09:23:33;3.23;;;1.50;;
11522;SDS011;40093;43.224;27.910;2022-09-21T09:26:06;2.20;;;1.90;;
11522;SDS011;40093;43.224;27.910;2022-09-21T09:28:41;1.80;;;1.63;;
11522;SDS011;40093;43.224;27.910;2022-09-21T09:31:15;2.90;;;1.60;;
11522;SDS011;40093;43.224;27.910;2022-09-21T09:33:47;2.50;;;1.40;;
11522;SDS011;40093;43.224;27.910;2022-09-21T09:36:21;1.50;;;1.37;;
11522;SDS011;40093;43.224;27.910;2022-09-21T09:38:56;3.00;;;1.57;;
11522;SDS011;40093;43.224;27.910;2022-09-21T09:41:30;3.60;;;1.40;;
11522;SDS011;40093;43.224;27.910;2022-09-21T09:44:11;1.30;;;1.20;;
11522;SDS011;40093;43.224;27.910;2022-09-21T09:46:50;2.27;;;2.07;;
11522;SDS011;40093;43.224;27.910;2022-09-21T09:49:28;1.93;;;1.50;;
11522;SDS011;40093;43.224;27.910;2022-09-21T09:52:04;2.30;;;1.70;;
11522;SDS011;40093;43.224;27.910;2022-09-21T09:54:35;7.47;;;2.10;;
11522;SDS011;40093;43.224;27.910;2022-09-21T09:57:03;5.13;;;1.90;;
11522;SDS011;40093;43.224;27.910;2022-09-21T09:59:33;4.20;;;1.40;;
11522;SDS011;40093;43.224;27.910;2022-09-21T10:02:04;2.87;;;1.40;;
11522;SDS011;40093;43.224;27.910;2022-09-21T10:04:33;2.57;;;1.77;;
11522;SDS011;40093;43.224;27.910;2022-09-21T10:07:00;2.33;;;1.70;;
11522;SDS011;40093;43.224;27.910;2022-09-21T10:09:28;6.97;;;1.70;;
11522;SDS011;40093;43.224;27.910;2022-09-21T10:11:58;3.10;;;1.70;;
11522;SDS011;40093;43.224;27.910;2022-09-21T10:14:28;1.63;;;1.30;;
11522;SDS011;40093;43.224;27.910;2022-09-21T10:17:02;5.13;;;1.50;;
11522;SDS011;40093;43.224;27.910;2022-09-21T10:19:31;2.37;;;1.60;;
11522;SDS011;40093;43.224;27.910;2022-09-21T10:21:59;4.30;;;1.73;;
11522;SDS011;40093;43.224;27.910;2022-09-21T10:24:28;2.93;;;1.90;;
11522;SDS011;40093;43.224;27.910;2022-09-21T10:27:02;2.63;;;1.70;;
11522;SDS011;40093;43.224;27.910;2022-09-21T10:29:37;3.63;;;1.90;;
11522;SDS011;40093;43.224;27.910;2022-09-21T10:32:17;3.20;;;1.87;;
11522;SDS011;40093;43.224;27.910;2022-09-21T10:37:42;2.47;;;1.80;;
11522;SDS011;40093;43.224;27.910;2022-09-21T10:40:25;1.90;;;1.60;;
11522;SDS011;40093;43.224;27.910;2022-09-21T10:42:57;4.47;;;2.10;;
11522;SDS011;40093;43.224;27.910;2022-09-21T10:45:26;2.70;;;1.63;;
11522;SDS011;40093;43.224;27.910;2022-09-21T10:47:54;8.53;;;1.87;;
11522;SDS011;40093;43.224;27.910;2022-09-21T10:50:26;4.10;;;1.83;;
11522;SDS011;40093;43.224;27.910;2022-09-21T10:52:56;3.70;;;1.80;;
11522;SDS011;40093;43.224;27.910;2022-09-21T10:55:25;4.03;;;1.60;;
11522;SDS011;40093;43.224;27.910;2022-09-21T10:57:56;2.73;;;1.90;;
11522;SDS011;40093;43.224;27.910;2022-09-21T11:00:31;4.20;;;1.90;;
11522;SDS011;40093;43.224;27.910;2022-09-21T11:06:04;2.00;;;1.80;;
11522;SDS011;40093;43.224;27.910;2022-09-21T11:08:35;4.20;;;1.50;;
11522;SDS011;40093;43.224;27.910;2022-09-21T11:11:14;2.07;;;1.70;;
11522;SDS011;40093;43.224;27.910;2022-09-21T11:13:53;4.03;;;1.77;;
11522;SDS011;40093;43.224;27.910;2022-09-21T11:16:27;3.27;;;1.80;;
11522;SDS011;40093;43.224;27.910;2022-09-21T11:19:04;3.50;;;1.70;;
11522;SDS011;40093;43.224;27.910;2022-09-21T11:21:43;1.90;;;1.60;;
11522;SDS011;40093;43.224;27.910;2022-09-21T11:24:19;4.10;;;1.90;;
11522;SDS011;40093;43.224;27.910;2022-09-21T11:26:54;4.57;;;2.03;;
11522;SDS011;40093;43.224;27.910;2022-09-21T11:29:30;2.90;;;1.77;;
11522;SDS011;40093;43.224;27.910;2022-09-21T11:32:08;2.60;;;1.70;;
11522;SDS011;40093;43.224;27.910;2022-09-21T11:34:57;4.10;;;2.30;;
11522;SDS011;40093;43.224;27.910;2022-09-21T11:37:48;3.13;;;2.27;;
11522;SDS011;40093;43.224;27.910;2022-09-21T11:40:26;3.90;;;2.20;;
11522;SDS011;40093;43.224;27.910;2022-09-21T11:43:19;7.07;;;2.70;;
11522;SDS011;40093;43.224;27.910;2022-09-21T11:45:58;6.17;;;2.67;;
11522;SDS011;40093;43.224;27.910;2022-09-21T11:48:40;5.70;;;2.60;;
11522;SDS011;40093;43.224;27.910;2022-09-21T11:51:20;4.40;;;2.80;;
11522;SDS011;40093;43.224;27.910;2022-09-21T11:54:18;3.17;;;2.67;;
11522;SDS011;40093;43.224;27.910;2022-09-21T11:57:04;4.20;;;2.30;;
11522;SDS011;40093;43.224;27.910;2022-09-21T11:59:43;12.03;;;3.50;;
11522;SDS011;40093;43.224;27.910;2022-09-21T12:05:26;4.93;;;2.47;;
11522;SDS011;40093;43.224;27.910;2022-09-21T12:08:05;6.27;;;2.67;;
11522;SDS011;40093;43.224;27.910;2022-09-21T12:10:59;6.13;;;1.90;;
11522;SDS011;40093;43.224;27.910;2022-09-21T12:13:32;4.80;;;2.50;;
11522;SDS011;40093;43.224;27.910;2022-09-21T12:16:09;5.37;;;2.63;;
11522;SDS011;40093;43.224;27.910;2022-09-21T12:18:44;3.10;;;2.80;;
11522;SDS011;40093;43.224;27.910;2022-09-21T12:21:20;2.37;;;2.07;;
11522;SDS011;40093;43.224;27.910;2022-09-21T12:23:50;2.80;;;2.00;;
11522;SDS011;40093;43.224;27.910;2022-09-21T12:26:22;5.27;;;2.30;;
11522;SDS011;40093;43.224;27.910;2022-09-21T12:28:53;3.63;;;2.10;;
11522;SDS011;40093;43.224;27.910;2022-09-21T12:31:25;4.00;;;2.20;;
11522;SDS011;40093;43.224;27.910;2022-09-21T12:34:00;2.80;;;1.90;;
11522;SDS011;40093;43.224;27.910;2022-09-21T12:36:32;2.70;;;1.60;;
11522;SDS011;40093;43.224;27.910;2022-09-21T12:39:04;1.70;;;1.60;;
11522;SDS011;40093;43.224;27.910;2022-09-21T12:41:41;2.50;;;2.10;;
11522;SDS011;40093;43.224;27.910;2022-09-21T12:44:16;5.00;;;2.20;;
11522;SDS011;40093;43.224;27.910;2022-09-21T12:46:49;3.17;;;2.10;;
11522;SDS011;40093;43.224;27.910;2022-09-21T12:49:36;3.73;;;2.20;;
11522;SDS011;40093;43.224;27.910;2022-09-21T12:52:06;2.90;;;1.90;;
11522;SDS011;40093;43.224;27.910;2022-09-21T12:54:37;2.60;;;2.17;;
11522;SDS011;40093;43.224;27.910;2022-09-21T12:57:13;6.67;;;2.53;;
11522;SDS011;40093;43.224;27.910;2022-09-21T12:59:51;5.47;;;2.73;;
11522;SDS011;40093;43.224;27.910;2022-09-21T13:02:27;3.60;;;2.20;;
11522;SDS011;40093;43.224;27.910;2022-09-21T13:05:02;4.37;;;2.90;;
11522;SDS011;40093;43.224;27.910;2022-09-21T13:10:41;3.63;;;2.60;;
11522;SDS011;40093;43.224;27.910;2022-09-21T13:13:19;3.73;;;2.20;;
11522;SDS011;40093;43.224;27.910;2022-09-21T13:15:50;3.80;;;2.07;;
11522;SDS011;40093;43.224;27.910;2022-09-21T13:18:20;6.17;;;2.23;;
11522;SDS011;40093;43.224;27.910;2022-09-21T13:20:51;3.83;;;1.90;;
11522;SDS011;40093;43.224;27.910;2022-09-21T13:23:21;3.60;;;2.23;;
11522;SDS011;40093;43.224;27.910;2022-09-21T13:25:58;4.50;;;2.30;;
11522;SDS011;40093;43.224;27.910;2022-09-21T13:31:40;3.17;;;2.10;;
11522;SDS011;40093;43.224;27.910;2022-09-21T13:34:20;4.20;;;2.00;;
11522;SDS011;40093;43.224;27.910;2022-09-21T13:43:40;4.57;;;1.93;;
11522;SDS011;40093;43.224;27.910;2022-09-21T13:49:32;2.60;;;1.50;;
11522;SDS011;40093;43.224;27.910;2022-09-21T13:52:07;3.33;;;1.50;;
11522;SDS011;40093;43.224;27.910;2022-09-21T13:54:56;2.00;;;1.40;;
11522;SDS011;40093;43.224;27.910;2022-09-21T13:57:27;3.30;;;1.80;;
11522;SDS011;40093;43.224;27.910;2022-09-21T14:00:03;3.73;;;1.80;;
11522;SDS011;40093;43.224;27.910;2022-09-21T14:02:55;2.80;;;2.20;;
11522;SDS011;40093;43.224;27.910;2022-09-21T14:05:26;3.30;;;2.00;;
11522;SDS011;40093;43.224;27.910;2022-09-21T14:07:59;5.57;;;2.20;;
11522;SDS011;40093;43.224;27.910;2022-09-21T14:10:27;5.17;;;2.30;;
11522;SDS011;40093;43.224;27.910;2022-09-21T14:12:57;3.77;;;2.50;;
11522;SDS011;40093;43.224;27.910;2022-09-21T14:15:31;6.73;;;2.10;;
11522;SDS011;40093;43.224;27.910;2022-09-21T14:21:17;5.50;;;2.10;;
11522;SDS011;40093;43.224;27.910;2022-09-21T14:26:35;4.77;;;3.20;;
11522;SDS011;40093;43.224;27.910;2022-09-21T14:29:15;4.13;;;3.20;;
11522;SDS011;40093;43.224;27.910;2022-09-21T14:31:48;4.17;;;2.80;;
11522;SDS011;40093;43.224;27.910;2022-09-21T14:34:21;5.13;;;1.93;;
11522;SDS011;40093;43.224;27.910;2022-09-21T14:36:53;2.93;;;1.90;;
11522;SDS011;40093;43.224;27.910;2022-09-21T14:39:24;5.60;;;1.83;;
11522;SDS011;40093;43.224;27.910;2022-09-21T14:41:56;3.27;;;1.77;;
11522;SDS011;40093;43.224;27.910;2022-09-21T14:44:28;2.00;;;1.67;;
11522;SDS011;40093;43.224;27.910;2022-09-21T14:47:02;3.07;;;1.67;;
11522;SDS011;40093;43.224;27.910;2022-09-21T14:53:14;2.33;;;1.30;;
11522;SDS011;40093;43.224;27.910;2022-09-21T14:56:06;2.23;;;1.47;;
11522;SDS011;40093;43.224;27.910;2022-09-21T14:58:55;2.23;;;1.27;;
11522;SDS011;40093;43.224;27.910;2022-09-21T15:01:35;1.50;;;1.40;;
11522;SDS011;40093;43.224;27.910;2022-09-21T15:04:22;2.70;;;1.63;;
11522;SDS011;40093;43.224;27.910;2022-09-21T15:06:58;1.90;;;1.50;;
11522;SDS011;40093;43.224;27.910;2022-09-21T15:13:14;2.10;;;1.70;;
11522;SDS011;40093;43.224;27.910;2022-09-21T15:15:55;2.03;;;1.80;;
11522;SDS011;40093;43.224;27.910;2022-09-21T15:18:32;2.83;;;1.60;;
11522;SDS011;40093;43.224;27.910;2022-09-21T15:21:17;1.90;;;1.80;;
11522;SDS011;40093;43.224;27.910;2022-09-21T15:23:48;2.27;;;1.60;;
11522;SDS011;40093;43.224;27.910;2022-09-21T15:26:18;2.07;;;1.40;;
11522;SDS011;40093;43.224;27.910;2022-09-21T15:28:48;2.23;;;1.80;;
11522;SDS011;40093;43.224;27.910;2022-09-21T15:31:18;1.80;;;1.50;;
11522;SDS011;40093;43.224;27.910;2022-09-21T15:33:45;6.13;;;2.77;;
11522;SDS011;40093;43.224;27.910;2022-09-21T15:36:20;3.53;;;2.00;;
11522;SDS011;40093;43.224;27.910;2022-09-21T15:38:49;3.83;;;1.90;;
11522;SDS011;40093;43.224;27.910;2022-09-21T15:44:10;4.53;;;3.77;;
11522;SDS011;40093;43.224;27.910;2022-09-21T15:46:39;5.50;;;4.60;;
11522;SDS011;40093;43.224;27.910;2022-09-21T15:49:11;7.77;;;6.77;;
11522;SDS011;40093;43.224;27.910;2022-09-21T15:51:43;3.30;;;2.10;;